sensor_id;sensor_type;location;lat;lon;timestamp;P1;durP1;ratioP1;P2;durP2;ratioP2
18084;SDS011;9169;44.492;11.372;2023-11-22T00:01:03;53.27;;;7.40;;
18084;SDS011;9169;44.492;11.372;2023-11-22T00:03:32;55.33;;;7.53;;
18084;SDS011;9169;44.492;11.372;2023-11-22T00:06:01;55.40;;;7.87;;
18084;SDS011;9169;44.492;11.372;2023-11-22T00:08:30;58.17;;;7.70;;
18084;SDS011;9169;44.492;11.372;2023-11-22T00:10:58;55.27;;;7.33;;
18084;SDS011;9169;44.492;11.372;2023-11-22T00:13:28;57.40;;;7.80;;
18084;SDS011;9169;44.492;11.372;2023-11-22T00:15:58;54.23;;;6.63;;
18084;SDS011;9169;44.492;11.372;2023-11-22T00:18:27;55.23;;;8.40;;
18084;SDS011;9169;44.492;11.372;2023-11-22T00:20:56;56.20;;;7.30;;
18084;SDS011;9169;44.492;11.372;2023-11-22T00:23:26;54.93;;;6.70;;
18084;SDS011;9169;44.492;11.372;2023-11-22T00:25:56;52.40;;;6.40;;
18084;SDS011;9169;44.492;11.372;2023-11-22T00:28:25;56.73;;;6.37;;
18084;SDS011;9169;44.492;11.372;2023-11-22T00:30:55;52.43;;;6.57;;
18084;SDS011;9169;44.492;11.372;2023-11-22T00:33:24;54.87;;;6.53;;
18084;SDS011;9169;44.492;11.372;2023-11-22T00:35:53;56.10;;;6.67;;
18084;SDS011;9169;44.492;11.372;2023-11-22T00:38:23;55.17;;;6.80;;
18084;SDS011;9169;44.492;11.372;2023-11-22T00:40:52;53.40;;;6.40;;
18084;SDS011;9169;44.492;11.372;2023-11-22T00:43:20;56.30;;;6.50;;
18084;SDS011;9169;44.492;11.372;2023-11-22T00:45:49;53.60;;;7.07;;
18084;SDS011;9169;44.492;11.372;2023-11-22T00:48:20;54.40;;;6.47;;
18084;SDS011;9169;44.492;11.372;2023-11-22T00:50:48;54.43;;;7.10;;
18084;SDS011;9169;44.492;11.372;2023-11-22T00:53:17;51.83;;;6.37;;
18084;SDS011;9169;44.492;11.372;2023-11-22T00:55:46;53.37;;;7.13;;
18084;SDS011;9169;44.492;11.372;2023-11-22T00:58:15;50.67;;;6.73;;
18084;SDS011;9169;44.492;11.372;2023-11-22T01:00:43;51.60;;;6.60;;
18084;SDS011;9169;44.492;11.372;2023-11-22T01:03:12;55.10;;;7.97;;
18084;SDS011;9169;44.492;11.372;2023-11-22T01:05:42;55.73;;;7.23;;
18084;SDS011;9169;44.492;11.372;2023-11-22T01:08:11;53.93;;;7.13;;
18084;SDS011;9169;44.492;11.372;2023-11-22T01:10:40;54.47;;;6.93;;
18084;SDS011;9169;44.492;11.372;2023-11-22T01:13:08;54.67;;;7.20;;
18084;SDS011;9169;44.492;11.372;2023-11-22T01:15:37;52.90;;;6.77;;
18084;SDS011;9169;44.492;11.372;2023-11-22T01:18:05;55.60;;;7.37;;
18084;SDS011;9169;44.492;11.372;2023-11-22T01:20:33;52.63;;;7.03;;
18084;SDS011;9169;44.492;11.372;2023-11-22T01:23:03;53.70;;;7.33;;
18084;SDS011;9169;44.492;11.372;2023-11-22T01:25:32;55.20;;;7.13;;
18084;SDS011;9169;44.492;11.372;2023-11-22T01:28:00;53.67;;;6.83;;
18084;SDS011;9169;44.492;11.372;2023-11-22T01:30:30;54.87;;;7.00;;
18084;SDS011;9169;44.492;11.372;2023-11-22T01:32:59;54.67;;;6.87;;
18084;SDS011;9169;44.492;11.372;2023-11-22T01:35:27;54.30;;;6.33;;
18084;SDS011;9169;44.492;11.372;2023-11-22T01:37:56;56.87;;;7.30;;
18084;SDS011;9169;44.492;11.372;2023-11-22T01:40:26;54.77;;;6.33;;
18084;SDS011;9169;44.492;11.372;2023-11-22T01:42:55;53.43;;;6.53;;
18084;SDS011;9169;44.492;11.372;2023-11-22T01:45:24;52.60;;;6.80;;
18084;SDS011;9169;44.492;11.372;2023-11-22T01:47:53;55.83;;;7.57;;
18084;SDS011;9169;44.492;11.372;2023-11-22T01:50:23;54.37;;;6.63;;
18084;SDS011;9169;44.492;11.372;2023-11-22T01:52:53;51.43;;;6.80;;
18084;SDS011;9169;44.492;11.372;2023-11-22T01:55:21;52.60;;;6.53;;
18084;SDS011;9169;44.492;11.372;2023-11-22T01:57:52;54.30;;;6.90;;
18084;SDS011;9169;44.492;11.372;2023-11-22T02:00:20;53.00;;;7.13;;
18084;SDS011;9169;44.492;11.372;2023-11-22T02:02:52;56.13;;;7.20;;
18084;SDS011;9169;44.492;11.372;2023-11-22T02:05:21;53.10;;;6.90;;
18084;SDS011;9169;44.492;11.372;2023-11-22T02:07:49;55.03;;;7.23;;
18084;SDS011;9169;44.492;11.372;2023-11-22T02:10:19;55.80;;;7.73;;
18084;SDS011;9169;44.492;11.372;2023-11-22T02:12:47;57.00;;;7.73;;
18084;SDS011;9169;44.492;11.372;2023-11-22T02:15:17;53.63;;;8.00;;
18084;SDS011;9169;44.492;11.372;2023-11-22T02:17:45;54.73;;;7.10;;
18084;SDS011;9169;44.492;11.372;2023-11-22T02:20:14;52.60;;;7.30;;
18084;SDS011;9169;44.492;11.372;2023-11-22T02:22:43;53.40;;;7.13;;
18084;SDS011;9169;44.492;11.372;2023-11-22T02:25:14;52.50;;;7.10;;
18084;SDS011;9169;44.492;11.372;2023-11-22T02:27:43;51.77;;;6.63;;
18084;SDS011;9169;44.492;11.372;2023-11-22T02:30:11;57.17;;;7.40;;
18084;SDS011;9169;44.492;11.372;2023-11-22T02:32:40;51.83;;;7.03;;
18084;SDS011;9169;44.492;11.372;2023-11-22T02:35:08;52.63;;;7.57;;
18084;SDS011;9169;44.492;11.372;2023-11-22T02:37:37;53.93;;;7.23;;
18084;SDS011;9169;44.492;11.372;2023-11-22T02:40:06;53.27;;;7.30;;
18084;SDS011;9169;44.492;11.372;2023-11-22T02:42:43;54.80;;;7.03;;
18084;SDS011;9169;44.492;11.372;2023-11-22T02:45:12;51.80;;;6.80;;
18084;SDS011;9169;44.492;11.372;2023-11-22T02:47:42;53.33;;;7.10;;
18084;SDS011;9169;44.492;11.372;2023-11-22T02:50:13;51.43;;;7.17;;
18084;SDS011;9169;44.492;11.372;2023-11-22T02:52:42;54.47;;;7.40;;
18084;SDS011;9169;44.492;11.372;2023-11-22T02:55:10;52.00;;;7.63;;
18084;SDS011;9169;44.492;11.372;2023-11-22T02:57:39;53.80;;;7.30;;
18084;SDS011;9169;44.492;11.372;2023-11-22T03:00:10;53.43;;;7.47;;
18084;SDS011;9169;44.492;11.372;2023-11-22T03:02:41;53.40;;;7.67;;
18084;SDS011;9169;44.492;11.372;2023-11-22T03:05:10;54.47;;;8.33;;
18084;SDS011;9169;44.492;11.372;2023-11-22T03:07:40;55.27;;;8.10;;
18084;SDS011;9169;44.492;11.372;2023-11-22T03:10:09;53.10;;;8.13;;
18084;SDS011;9169;44.492;11.372;2023-11-22T03:12:38;54.90;;;7.70;;
18084;SDS011;9169;44.492;11.372;2023-11-22T03:15:07;54.20;;;8.00;;
18084;SDS011;9169;44.492;11.372;2023-11-22T03:17:37;53.53;;;7.70;;
18084;SDS011;9169;44.492;11.372;2023-11-22T03:20:06;54.87;;;7.90;;
18084;SDS011;9169;44.492;11.372;2023-11-22T03:22:37;53.53;;;7.57;;
18084;SDS011;9169;44.492;11.372;2023-11-22T03:25:07;55.10;;;8.23;;
18084;SDS011;9169;44.492;11.372;2023-11-22T03:27:36;55.00;;;8.67;;
18084;SDS011;9169;44.492;11.372;2023-11-22T03:30:06;52.87;;;8.40;;
18084;SDS011;9169;44.492;11.372;2023-11-22T03:32:39;53.00;;;8.40;;
18084;SDS011;9169;44.492;11.372;2023-11-22T03:35:09;54.20;;;8.30;;
18084;SDS011;9169;44.492;11.372;2023-11-22T03:37:38;53.43;;;8.60;;
18084;SDS011;9169;44.492;11.372;2023-11-22T03:40:07;53.17;;;8.27;;
18084;SDS011;9169;44.492;11.372;2023-11-22T03:42:37;54.50;;;8.43;;
18084;SDS011;9169;44.492;11.372;2023-11-22T03:45:06;54.50;;;8.83;;
18084;SDS011;9169;44.492;11.372;2023-11-22T03:47:35;55.67;;;9.30;;
18084;SDS011;9169;44.492;11.372;2023-11-22T03:50:06;58.33;;;9.83;;
18084;SDS011;9169;44.492;11.372;2023-11-22T03:52:36;55.50;;;9.30;;
18084;SDS011;9169;44.492;11.372;2023-11-22T03:55:05;61.33;;;10.40;;
18084;SDS011;9169;44.492;11.372;2023-11-22T03:57:34;55.47;;;9.60;;
18084;SDS011;9169;44.492;11.372;2023-11-22T04:00:04;56.37;;;10.40;;
18084;SDS011;9169;44.492;11.372;2023-11-22T04:02:39;56.80;;;9.37;;
18084;SDS011;9169;44.492;11.372;2023-11-22T04:05:10;57.50;;;10.80;;
18084;SDS011;9169;44.492;11.372;2023-11-22T04:07:39;55.17;;;9.70;;
18084;SDS011;9169;44.492;11.372;2023-11-22T04:10:08;55.77;;;9.47;;
18084;SDS011;9169;44.492;11.372;2023-11-22T04:12:37;56.60;;;9.87;;
18084;SDS011;9169;44.492;11.372;2023-11-22T04:15:06;55.43;;;9.43;;
18084;SDS011;9169;44.492;11.372;2023-11-22T04:17:36;57.70;;;10.83;;
18084;SDS011;9169;44.492;11.372;2023-11-22T04:20:05;55.37;;;10.43;;
18084;SDS011;9169;44.492;11.372;2023-11-22T04:22:37;57.47;;;10.80;;
18084;SDS011;9169;44.492;11.372;2023-11-22T04:25:07;56.00;;;9.73;;
18084;SDS011;9169;44.492;11.372;2023-11-22T04:27:36;58.90;;;12.07;;
18084;SDS011;9169;44.492;11.372;2023-11-22T04:30:05;58.03;;;10.30;;
18084;SDS011;9169;44.492;11.372;2023-11-22T04:32:40;57.37;;;11.33;;
18084;SDS011;9169;44.492;11.372;2023-11-22T04:35:09;57.20;;;10.47;;
18084;SDS011;9169;44.492;11.372;2023-11-22T04:37:39;57.90;;;10.13;;
18084;SDS011;9169;44.492;11.372;2023-11-22T04:40:07;56.90;;;11.40;;
18084;SDS011;9169;44.492;11.372;2023-11-22T04:42:38;56.80;;;11.77;;
18084;SDS011;9169;44.492;11.372;2023-11-22T04:45:06;56.83;;;11.40;;
18084;SDS011;9169;44.492;11.372;2023-11-22T04:47:36;57.90;;;11.37;;
18084;SDS011;9169;44.492;11.372;2023-11-22T04:50:05;59.87;;;12.13;;
18084;SDS011;9169;44.492;11.372;2023-11-22T04:52:34;59.60;;;13.10;;
18084;SDS011;9169;44.492;11.372;2023-11-22T04:55:04;59.47;;;12.70;;
18084;SDS011;9169;44.492;11.372;2023-11-22T04:57:33;61.10;;;12.80;;
18084;SDS011;9169;44.492;11.372;2023-11-22T05:00:01;59.27;;;12.50;;
18084;SDS011;9169;44.492;11.372;2023-11-22T05:02:34;57.40;;;12.43;;
18084;SDS011;9169;44.492;11.372;2023-11-22T05:05:03;59.77;;;13.17;;
18084;SDS011;9169;44.492;11.372;2023-11-22T05:07:32;59.47;;;13.23;;
18084;SDS011;9169;44.492;11.372;2023-11-22T05:10:00;60.00;;;14.20;;
18084;SDS011;9169;44.492;11.372;2023-11-22T05:12:31;61.40;;;14.80;;
18084;SDS011;9169;44.492;11.372;2023-11-22T05:14:59;60.47;;;13.63;;
18084;SDS011;9169;44.492;11.372;2023-11-22T05:17:31;59.53;;;13.63;;
18084;SDS011;9169;44.492;11.372;2023-11-22T05:20:00;61.13;;;14.63;;
18084;SDS011;9169;44.492;11.372;2023-11-22T05:22:29;63.80;;;14.70;;
18084;SDS011;9169;44.492;11.372;2023-11-22T05:24:57;64.30;;;15.53;;
18084;SDS011;9169;44.492;11.372;2023-11-22T05:27:25;62.10;;;15.57;;
18084;SDS011;9169;44.492;11.372;2023-11-22T05:29:56;61.63;;;15.33;;
18084;SDS011;9169;44.492;11.372;2023-11-22T05:32:25;66.13;;;14.57;;
18084;SDS011;9169;44.492;11.372;2023-11-22T05:34:53;63.00;;;14.60;;
18084;SDS011;9169;44.492;11.372;2023-11-22T05:37:22;61.70;;;14.60;;
18084;SDS011;9169;44.492;11.372;2023-11-22T05:39:51;64.17;;;15.70;;
18084;SDS011;9169;44.492;11.372;2023-11-22T05:42:19;61.80;;;14.87;;
18084;SDS011;9169;44.492;11.372;2023-11-22T05:44:48;63.27;;;15.00;;
18084;SDS011;9169;44.492;11.372;2023-11-22T05:47:18;62.93;;;15.20;;
18084;SDS011;9169;44.492;11.372;2023-11-22T05:49:46;61.37;;;15.30;;
18084;SDS011;9169;44.492;11.372;2023-11-22T05:52:15;62.30;;;15.50;;
18084;SDS011;9169;44.492;11.372;2023-11-22T05:54:43;61.30;;;15.50;;
18084;SDS011;9169;44.492;11.372;2023-11-22T05:57:12;63.70;;;16.33;;
18084;SDS011;9169;44.492;11.372;2023-11-22T05:59:41;73.13;;;18.83;;
18084;SDS011;9169;44.492;11.372;2023-11-22T06:02:10;65.20;;;17.03;;
18084;SDS011;9169;44.492;11.372;2023-11-22T06:04:40;67.60;;;18.70;;
18084;SDS011;9169;44.492;11.372;2023-11-22T06:07:09;67.47;;;18.67;;
18084;SDS011;9169;44.492;11.372;2023-11-22T06:09:37;65.80;;;17.50;;
18084;SDS011;9169;44.492;11.372;2023-11-22T06:12:06;68.13;;;18.10;;
18084;SDS011;9169;44.492;11.372;2023-11-22T06:14:35;66.97;;;19.87;;
18084;SDS011;9169;44.492;11.372;2023-11-22T06:17:04;72.73;;;20.00;;
18084;SDS011;9169;44.492;11.372;2023-11-22T06:19:33;72.43;;;20.30;;
18084;SDS011;9169;44.492;11.372;2023-11-22T06:22:03;73.10;;;20.97;;
18084;SDS011;9169;44.492;11.372;2023-11-22T06:24:32;74.00;;;21.80;;
18084;SDS011;9169;44.492;11.372;2023-11-22T06:27:02;68.53;;;20.30;;
18084;SDS011;9169;44.492;11.372;2023-11-22T06:29:32;70.50;;;22.00;;
18084;SDS011;9169;44.492;11.372;2023-11-22T06:32:00;72.00;;;20.47;;
18084;SDS011;9169;44.492;11.372;2023-11-22T06:34:29;74.63;;;20.70;;
18084;SDS011;9169;44.492;11.372;2023-11-22T06:36:57;78.93;;;20.60;;
18084;SDS011;9169;44.492;11.372;2023-11-22T06:39:27;71.37;;;21.53;;
18084;SDS011;9169;44.492;11.372;2023-11-22T06:41:56;67.40;;;19.73;;
18084;SDS011;9169;44.492;11.372;2023-11-22T06:44:24;67.37;;;20.27;;
18084;SDS011;9169;44.492;11.372;2023-11-22T06:46:53;70.97;;;21.90;;
18084;SDS011;9169;44.492;11.372;2023-11-22T06:49:21;69.87;;;21.23;;
18084;SDS011;9169;44.492;11.372;2023-11-22T06:51:50;68.57;;;19.73;;
18084;SDS011;9169;44.492;11.372;2023-11-22T06:54:19;68.50;;;18.80;;
18084;SDS011;9169;44.492;11.372;2023-11-22T06:56:49;68.67;;;19.53;;
18084;SDS011;9169;44.492;11.372;2023-11-22T06:59:18;67.83;;;19.37;;
18084;SDS011;9169;44.492;11.372;2023-11-22T07:01:46;69.00;;;19.83;;
18084;SDS011;9169;44.492;11.372;2023-11-22T07:04:15;66.77;;;18.93;;
18084;SDS011;9169;44.492;11.372;2023-11-22T07:06:43;66.03;;;18.80;;
18084;SDS011;9169;44.492;11.372;2023-11-22T07:09:12;67.30;;;18.50;;
18084;SDS011;9169;44.492;11.372;2023-11-22T07:11:40;68.47;;;19.80;;
18084;SDS011;9169;44.492;11.372;2023-11-22T07:14:12;76.43;;;19.93;;
18084;SDS011;9169;44.492;11.372;2023-11-22T07:16:40;67.70;;;19.37;;
18084;SDS011;9169;44.492;11.372;2023-11-22T07:19:09;73.13;;;18.33;;
18084;SDS011;9169;44.492;11.372;2023-11-22T07:21:39;68.70;;;17.97;;
18084;SDS011;9169;44.492;11.372;2023-11-22T07:24:08;64.67;;;17.50;;
18084;SDS011;9169;44.492;11.372;2023-11-22T07:26:40;63.07;;;17.37;;
18084;SDS011;9169;44.492;11.372;2023-11-22T07:29:11;61.33;;;17.80;;
18084;SDS011;9169;44.492;11.372;2023-11-22T07:31:39;63.73;;;18.73;;
18084;SDS011;9169;44.492;11.372;2023-11-22T07:34:09;61.33;;;17.43;;
18084;SDS011;9169;44.492;11.372;2023-11-22T07:36:38;68.03;;;19.77;;
18084;SDS011;9169;44.492;11.372;2023-11-22T07:39:07;65.23;;;19.60;;
18084;SDS011;9169;44.492;11.372;2023-11-22T07:41:38;60.37;;;17.23;;
18084;SDS011;9169;44.492;11.372;2023-11-22T07:44:07;60.10;;;17.23;;
18084;SDS011;9169;44.492;11.372;2023-11-22T07:46:39;58.67;;;17.30;;
18084;SDS011;9169;44.492;11.372;2023-11-22T07:49:11;63.63;;;17.73;;
18084;SDS011;9169;44.492;11.372;2023-11-22T07:51:40;63.30;;;16.70;;
18084;SDS011;9169;44.492;11.372;2023-11-22T07:54:09;62.83;;;18.00;;
18084;SDS011;9169;44.492;11.372;2023-11-22T07:56:38;63.47;;;19.13;;
18084;SDS011;9169;44.492;11.372;2023-11-22T07:59:10;63.97;;;19.47;;
18084;SDS011;9169;44.492;11.372;2023-11-22T08:01:41;65.53;;;19.13;;
18084;SDS011;9169;44.492;11.372;2023-11-22T08:04:10;57.63;;;17.00;;
18084;SDS011;9169;44.492;11.372;2023-11-22T08:06:39;65.27;;;17.00;;
18084;SDS011;9169;44.492;11.372;2023-11-22T08:09:07;67.47;;;18.67;;
18084;SDS011;9169;44.492;11.372;2023-11-22T08:11:36;58.70;;;18.77;;
18084;SDS011;9169;44.492;11.372;2023-11-22T08:14:05;61.60;;;17.67;;
18084;SDS011;9169;44.492;11.372;2023-11-22T08:16:34;58.57;;;16.60;;
18084;SDS011;9169;44.492;11.372;2023-11-22T08:19:06;53.73;;;16.67;;
18084;SDS011;9169;44.492;11.372;2023-11-22T08:21:35;60.53;;;16.73;;
18084;SDS011;9169;44.492;11.372;2023-11-22T08:24:04;55.10;;;16.60;;
18084;SDS011;9169;44.492;11.372;2023-11-22T08:26:33;56.27;;;16.00;;
18084;SDS011;9169;44.492;11.372;2023-11-22T08:29:02;54.83;;;16.40;;
18084;SDS011;9169;44.492;11.372;2023-11-22T08:31:30;53.70;;;15.93;;
18084;SDS011;9169;44.492;11.372;2023-11-22T08:33:59;56.70;;;16.50;;
18084;SDS011;9169;44.492;11.372;2023-11-22T08:36:29;54.40;;;15.50;;
18084;SDS011;9169;44.492;11.372;2023-11-22T08:38:58;54.80;;;16.67;;
18084;SDS011;9169;44.492;11.372;2023-11-22T08:41:27;58.27;;;17.33;;
18084;SDS011;9169;44.492;11.372;2023-11-22T08:43:57;56.70;;;16.90;;
18084;SDS011;9169;44.492;11.372;2023-11-22T08:46:26;56.57;;;16.50;;
18084;SDS011;9169;44.492;11.372;2023-11-22T08:48:55;54.23;;;16.80;;
18084;SDS011;9169;44.492;11.372;2023-11-22T08:51:24;50.47;;;13.80;;
18084;SDS011;9169;44.492;11.372;2023-11-22T08:53:55;49.10;;;14.87;;
18084;SDS011;9169;44.492;11.372;2023-11-22T08:56:24;55.33;;;16.60;;
18084;SDS011;9169;44.492;11.372;2023-11-22T08:58:52;54.23;;;17.00;;
18084;SDS011;9169;44.492;11.372;2023-11-22T09:01:21;56.13;;;16.43;;
18084;SDS011;9169;44.492;11.372;2023-11-22T09:03:50;51.73;;;15.40;;
18084;SDS011;9169;44.492;11.372;2023-11-22T09:06:19;51.90;;;15.90;;
18084;SDS011;9169;44.492;11.372;2023-11-22T09:08:47;50.03;;;15.10;;
18084;SDS011;9169;44.492;11.372;2023-11-22T09:11:17;53.23;;;16.47;;
18084;SDS011;9169;44.492;11.372;2023-11-22T09:13:48;49.47;;;15.30;;
18084;SDS011;9169;44.492;11.372;2023-11-22T09:16:17;49.90;;;16.10;;
18084;SDS011;9169;44.492;11.372;2023-11-22T09:18:48;50.70;;;15.70;;
18084;SDS011;9169;44.492;11.372;2023-11-22T09:21:17;56.30;;;17.20;;
18084;SDS011;9169;44.492;11.372;2023-11-22T09:23:45;52.00;;;15.60;;
18084;SDS011;9169;44.492;11.372;2023-11-22T09:26:15;53.43;;;16.17;;
18084;SDS011;9169;44.492;11.372;2023-11-22T09:28:45;56.43;;;17.40;;
18084;SDS011;9169;44.492;11.372;2023-11-22T09:31:14;56.40;;;16.43;;
18084;SDS011;9169;44.492;11.372;2023-11-22T09:33:47;50.10;;;15.57;;
18084;SDS011;9169;44.492;11.372;2023-11-22T09:36:15;52.87;;;15.80;;
18084;SDS011;9169;44.492;11.372;2023-11-22T09:38:44;52.17;;;16.97;;
18084;SDS011;9169;44.492;11.372;2023-11-22T09:41:14;49.87;;;15.63;;
18084;SDS011;9169;44.492;11.372;2023-11-22T09:43:43;47.27;;;15.50;;
18084;SDS011;9169;44.492;11.372;2023-11-22T09:46:16;54.10;;;14.90;;
18084;SDS011;9169;44.492;11.372;2023-11-22T09:48:47;49.10;;;16.50;;
18084;SDS011;9169;44.492;11.372;2023-11-22T09:51:20;49.03;;;15.30;;
18084;SDS011;9169;44.492;11.372;2023-11-22T09:53:52;50.03;;;14.90;;
18084;SDS011;9169;44.492;11.372;2023-11-22T09:56:27;50.07;;;14.27;;
18084;SDS011;9169;44.492;11.372;2023-11-22T09:59:00;52.43;;;14.27;;
18084;SDS011;9169;44.492;11.372;2023-11-22T10:01:31;47.97;;;15.80;;
18084;SDS011;9169;44.492;11.372;2023-11-22T10:04:03;49.67;;;15.47;;
18084;SDS011;9169;44.492;11.372;2023-11-22T10:06:33;45.80;;;14.67;;
18084;SDS011;9169;44.492;11.372;2023-11-22T10:09:03;47.20;;;16.13;;
18084;SDS011;9169;44.492;11.372;2023-11-22T10:11:35;49.77;;;15.03;;
18084;SDS011;9169;44.492;11.372;2023-11-22T10:14:07;44.20;;;15.27;;
18084;SDS011;9169;44.492;11.372;2023-11-22T10:16:35;47.10;;;16.53;;
18084;SDS011;9169;44.492;11.372;2023-11-22T10:19:04;47.90;;;16.70;;
18084;SDS011;9169;44.492;11.372;2023-11-22T10:21:34;47.30;;;16.30;;
18084;SDS011;9169;44.492;11.372;2023-11-22T10:24:04;47.63;;;16.67;;
18084;SDS011;9169;44.492;11.372;2023-11-22T10:26:36;48.70;;;16.60;;
18084;SDS011;9169;44.492;11.372;2023-11-22T10:29:06;46.50;;;16.10;;
18084;SDS011;9169;44.492;11.372;2023-11-22T10:31:35;47.20;;;15.60;;
18084;SDS011;9169;44.492;11.372;2023-11-22T10:34:08;45.20;;;17.67;;
18084;SDS011;9169;44.492;11.372;2023-11-22T10:36:37;45.23;;;15.00;;
18084;SDS011;9169;44.492;11.372;2023-11-22T10:39:08;41.00;;;15.77;;
18084;SDS011;9169;44.492;11.372;2023-11-22T10:41:42;42.13;;;15.03;;
18084;SDS011;9169;44.492;11.372;2023-11-22T10:44:13;40.30;;;15.87;;
18084;SDS011;9169;44.492;11.372;2023-11-22T10:46:43;42.70;;;14.57;;
18084;SDS011;9169;44.492;11.372;2023-11-22T10:49:12;43.10;;;14.73;;
18084;SDS011;9169;44.492;11.372;2023-11-22T10:51:41;45.40;;;15.93;;
18084;SDS011;9169;44.492;11.372;2023-11-22T10:54:14;41.27;;;14.27;;
18084;SDS011;9169;44.492;11.372;2023-11-22T10:56:45;41.13;;;15.47;;
18084;SDS011;9169;44.492;11.372;2023-11-22T10:59:19;39.97;;;14.17;;
18084;SDS011;9169;44.492;11.372;2023-11-22T11:01:50;41.77;;;14.80;;
18084;SDS011;9169;44.492;11.372;2023-11-22T11:04:20;44.97;;;16.37;;
18084;SDS011;9169;44.492;11.372;2023-11-22T11:06:53;41.80;;;13.90;;
18084;SDS011;9169;44.492;11.372;2023-11-22T11:09:23;44.60;;;13.77;;
18084;SDS011;9169;44.492;11.372;2023-11-22T11:11:59;39.63;;;15.50;;
18084;SDS011;9169;44.492;11.372;2023-11-22T11:14:32;36.70;;;14.20;;
18084;SDS011;9169;44.492;11.372;2023-11-22T11:17:01;57.27;;;14.73;;
18084;SDS011;9169;44.492;11.372;2023-11-22T11:19:30;40.40;;;14.73;;
18084;SDS011;9169;44.492;11.372;2023-11-22T11:21:59;42.73;;;14.80;;
18084;SDS011;9169;44.492;11.372;2023-11-22T11:24:28;40.33;;;13.63;;
18084;SDS011;9169;44.492;11.372;2023-11-22T11:26:56;38.20;;;12.67;;
18084;SDS011;9169;44.492;11.372;2023-11-22T11:29:30;38.13;;;13.40;;
18084;SDS011;9169;44.492;11.372;2023-11-22T11:32:03;35.67;;;13.67;;
18084;SDS011;9169;44.492;11.372;2023-11-22T11:34:32;36.20;;;12.57;;
18084;SDS011;9169;44.492;11.372;2023-11-22T11:37:15;38.70;;;14.63;;
18084;SDS011;9169;44.492;11.372;2023-11-22T11:39:45;38.33;;;12.53;;
18084;SDS011;9169;44.492;11.372;2023-11-22T11:42:15;36.97;;;12.50;;
18084;SDS011;9169;44.492;11.372;2023-11-22T11:45:03;34.27;;;11.67;;
18084;SDS011;9169;44.492;11.372;2023-11-22T11:47:35;32.47;;;11.33;;
18084;SDS011;9169;44.492;11.372;2023-11-22T11:50:04;32.43;;;10.47;;
18084;SDS011;9169;44.492;11.372;2023-11-22T11:52:33;30.30;;;9.83;;
18084;SDS011;9169;44.492;11.372;2023-11-22T11:55:04;31.60;;;10.20;;
18084;SDS011;9169;44.492;11.372;2023-11-22T11:57:34;30.10;;;10.30;;
18084;SDS011;9169;44.492;11.372;2023-11-22T12:00:06;28.60;;;9.20;;
18084;SDS011;9169;44.492;11.372;2023-11-22T12:02:39;33.43;;;9.93;;
18084;SDS011;9169;44.492;11.372;2023-11-22T12:05:07;30.30;;;9.17;;
18084;SDS011;9169;44.492;11.372;2023-11-22T12:07:36;33.07;;;10.00;;
18084;SDS011;9169;44.492;11.372;2023-11-22T12:10:05;25.57;;;8.90;;
18084;SDS011;9169;44.492;11.372;2023-11-22T12:12:35;25.47;;;8.77;;
18084;SDS011;9169;44.492;11.372;2023-11-22T12:15:04;24.97;;;8.67;;
18084;SDS011;9169;44.492;11.372;2023-11-22T12:17:36;23.33;;;8.47;;
18084;SDS011;9169;44.492;11.372;2023-11-22T12:20:11;25.57;;;8.47;;
18084;SDS011;9169;44.492;11.372;2023-11-22T12:22:44;24.90;;;8.50;;
18084;SDS011;9169;44.492;11.372;2023-11-22T12:25:13;27.40;;;9.03;;
18084;SDS011;9169;44.492;11.372;2023-11-22T12:27:43;28.73;;;8.27;;
18084;SDS011;9169;44.492;11.372;2023-11-22T12:33:08;23.27;;;8.30;;
18084;SDS011;9169;44.492;11.372;2023-11-22T12:35:39;22.77;;;7.33;;
18084;SDS011;9169;44.492;11.372;2023-11-22T12:38:11;23.43;;;6.93;;
18084;SDS011;9169;44.492;11.372;2023-11-22T12:40:43;21.60;;;8.00;;
18084;SDS011;9169;44.492;11.372;2023-11-22T12:43:13;20.30;;;7.47;;
18084;SDS011;9169;44.492;11.372;2023-11-22T12:45:43;21.10;;;7.80;;
18084;SDS011;9169;44.492;11.372;2023-11-22T12:48:21;20.07;;;7.17;;
18084;SDS011;9169;44.492;11.372;2023-11-22T12:50:51;25.30;;;7.60;;
18084;SDS011;9169;44.492;11.372;2023-11-22T12:53:20;20.87;;;7.30;;
18084;SDS011;9169;44.492;11.372;2023-11-22T12:55:50;18.17;;;6.30;;
18084;SDS011;9169;44.492;11.372;2023-11-22T12:58:21;16.13;;;5.70;;
18084;SDS011;9169;44.492;11.372;2023-11-22T13:00:54;21.87;;;6.33;;
18084;SDS011;9169;44.492;11.372;2023-11-22T13:03:28;16.30;;;5.33;;
18084;SDS011;9169;44.492;11.372;2023-11-22T13:05:58;18.83;;;5.30;;
18084;SDS011;9169;44.492;11.372;2023-11-22T13:08:27;23.07;;;5.50;;
18084;SDS011;9169;44.492;11.372;2023-11-22T13:10:56;25.90;;;5.40;;
18084;SDS011;9169;44.492;11.372;2023-11-22T13:13:25;16.90;;;4.57;;
18084;SDS011;9169;44.492;11.372;2023-11-22T13:15:54;18.73;;;4.30;;
18084;SDS011;9169;44.492;11.372;2023-11-22T13:18:23;16.23;;;4.50;;
18084;SDS011;9169;44.492;11.372;2023-11-22T13:20:54;18.10;;;4.07;;
18084;SDS011;9169;44.492;11.372;2023-11-22T13:23:23;17.87;;;3.50;;
18084;SDS011;9169;44.492;11.372;2023-11-22T13:25:52;14.27;;;3.50;;
18084;SDS011;9169;44.492;11.372;2023-11-22T13:28:20;23.13;;;3.03;;
18084;SDS011;9169;44.492;11.372;2023-11-22T13:30:51;15.50;;;4.03;;
18084;SDS011;9169;44.492;11.372;2023-11-22T13:33:20;12.57;;;3.30;;
18084;SDS011;9169;44.492;11.372;2023-11-22T13:35:49;8.17;;;2.90;;
18084;SDS011;9169;44.492;11.372;2023-11-22T13:38:19;7.80;;;2.33;;
18084;SDS011;9169;44.492;11.372;2023-11-22T13:40:48;7.93;;;2.50;;
18084;SDS011;9169;44.492;11.372;2023-11-22T13:43:17;17.30;;;2.60;;
18084;SDS011;9169;44.492;11.372;2023-11-22T13:45:47;10.10;;;2.90;;
18084;SDS011;9169;44.492;11.372;2023-11-22T13:48:17;6.40;;;2.33;;
18084;SDS011;9169;44.492;11.372;2023-11-22T13:50:45;11.50;;;2.77;;
18084;SDS011;9169;44.492;11.372;2023-11-22T13:53:14;8.33;;;2.70;;
18084;SDS011;9169;44.492;11.372;2023-11-22T13:55:49;9.83;;;2.30;;
18084;SDS011;9169;44.492;11.372;2023-11-22T13:58:20;14.00;;;2.60;;
18084;SDS011;9169;44.492;11.372;2023-11-22T14:00:50;10.00;;;2.63;;
18084;SDS011;9169;44.492;11.372;2023-11-22T14:03:21;7.20;;;2.07;;
18084;SDS011;9169;44.492;11.372;2023-11-22T14:05:50;9.90;;;2.63;;
18084;SDS011;9169;44.492;11.372;2023-11-22T14:08:18;7.00;;;2.07;;
18084;SDS011;9169;44.492;11.372;2023-11-22T14:10:48;8.13;;;1.90;;
18084;SDS011;9169;44.492;11.372;2023-11-22T14:13:17;10.70;;;2.00;;
18084;SDS011;9169;44.492;11.372;2023-11-22T14:15:47;14.50;;;3.00;;
18084;SDS011;9169;44.492;11.372;2023-11-22T14:18:16;15.97;;;2.57;;
18084;SDS011;9169;44.492;11.372;2023-11-22T14:20:45;11.90;;;2.70;;
18084;SDS011;9169;44.492;11.372;2023-11-22T14:23:13;7.57;;;2.00;;
18084;SDS011;9169;44.492;11.372;2023-11-22T14:25:42;7.67;;;2.83;;
18084;SDS011;9169;44.492;11.372;2023-11-22T14:28:12;17.70;;;2.57;;
18084;SDS011;9169;44.492;11.372;2023-11-22T14:30:41;9.83;;;2.50;;
18084;SDS011;9169;44.492;11.372;2023-11-22T14:33:09;6.53;;;2.00;;
18084;SDS011;9169;44.492;11.372;2023-11-22T14:35:38;8.10;;;2.30;;
18084;SDS011;9169;44.492;11.372;2023-11-22T14:38:06;11.07;;;2.40;;
18084;SDS011;9169;44.492;11.372;2023-11-22T14:40:35;9.13;;;2.50;;
18084;SDS011;9169;44.492;11.372;2023-11-22T14:43:05;6.67;;;2.13;;
18084;SDS011;9169;44.492;11.372;2023-11-22T14:45:35;7.80;;;2.10;;